sensor_id;sensor_type;location;lat;lon;timestamp;P1;durP1;ratioP1;P2;durP2;ratioP2
74229;SDS011;62589;12.568;99.958;2023-02-17T00:00:36;17.88;;;13.55;;
74229;SDS011;62589;12.568;99.958;2023-02-17T00:03:03;19.75;;;13.40;;
74229;SDS011;62589;12.568;99.958;2023-02-17T00:05:30;20.63;;;13.88;;
74229;SDS011;62589;12.568;99.958;2023-02-17T00:07:56;19.73;;;13.13;;
74229;SDS011;62589;12.568;99.958;2023-02-17T00:10:22;17.67;;;12.48;;
74229;SDS011;62589;12.568;99.958;2023-02-17T00:12:49;17.83;;;13.05;;
74229;SDS011;62589;12.568;99.958;2023-02-17T00:15:15;20.50;;;13.25;;
74229;SDS011;62589;12.568;99.958;2023-02-17T00:17:42;19.48;;;13.00;;
74229;SDS011;62589;12.568;99.958;2023-02-17T00:20:08;20.23;;;13.07;;
74229;SDS011;62589;12.568;99.958;2023-02-17T00:22:35;20.75;;;12.80;;
74229;SDS011;62589;12.568;99.958;2023-02-17T00:25:02;18.98;;;12.73;;
74229;SDS011;62589;12.568;99.958;2023-02-17T00:27:28;23.10;;;13.00;;
74229;SDS011;62589;12.568;99.958;2023-02-17T00:29:55;23.33;;;12.80;;
74229;SDS011;62589;12.568;99.958;2023-02-17T00:32:21;18.35;;;12.85;;
74229;SDS011;62589;12.568;99.958;2023-02-17T00:34:47;19.05;;;13.35;;
74229;SDS011;62589;12.568;99.958;2023-02-17T00:37:16;17.50;;;12.57;;
74229;SDS011;62589;12.568;99.958;2023-02-17T00:39:42;20.92;;;13.55;;
74229;SDS011;62589;12.568;99.958;2023-02-17T00:42:09;17.23;;;12.65;;
74229;SDS011;62589;12.568;99.958;2023-02-17T00:44:35;24.90;;;13.30;;
74229;SDS011;62589;12.568;99.958;2023-02-17T00:47:02;20.63;;;13.93;;
74229;SDS011;62589;12.568;99.958;2023-02-17T00:49:29;20.88;;;13.20;;
74229;SDS011;62589;12.568;99.958;2023-02-17T00:51:58;18.85;;;12.43;;
74229;SDS011;62589;12.568;99.958;2023-02-17T00:54:26;16.58;;;12.45;;
74229;SDS011;62589;12.568;99.958;2023-02-17T00:56:53;20.23;;;12.63;;
74229;SDS011;62589;12.568;99.958;2023-02-17T00:59:20;20.38;;;12.73;;
74229;SDS011;62589;12.568;99.958;2023-02-17T01:01:46;22.27;;;13.30;;
74229;SDS011;62589;12.568;99.958;2023-02-17T01:04:13;20.65;;;13.15;;
74229;SDS011;62589;12.568;99.958;2023-02-17T01:06:40;18.10;;;12.55;;
74229;SDS011;62589;12.568;99.958;2023-02-17T01:09:07;20.02;;;12.80;;
74229;SDS011;62589;12.568;99.958;2023-02-17T01:11:38;20.50;;;12.35;;
74229;SDS011;62589;12.568;99.958;2023-02-17T01:14:05;21.35;;;12.68;;
74229;SDS011;62589;12.568;99.958;2023-02-17T01:16:33;19.10;;;13.18;;
74229;SDS011;62589;12.568;99.958;2023-02-17T01:19:03;17.52;;;12.07;;
74229;SDS011;62589;12.568;99.958;2023-02-17T01:21:31;16.13;;;12.32;;
74229;SDS011;62589;12.568;99.958;2023-02-17T01:23:58;20.75;;;13.20;;
74229;SDS011;62589;12.568;99.958;2023-02-17T01:26:27;20.48;;;13.32;;
74229;SDS011;62589;12.568;99.958;2023-02-17T01:28:55;19.80;;;13.50;;
74229;SDS011;62589;12.568;99.958;2023-02-17T01:31:23;20.30;;;12.88;;
74229;SDS011;62589;12.568;99.958;2023-02-17T01:33:51;18.42;;;12.80;;
74229;SDS011;62589;12.568;99.958;2023-02-17T01:36:18;18.85;;;12.88;;
74229;SDS011;62589;12.568;99.958;2023-02-17T01:38:45;20.15;;;13.73;;
74229;SDS011;62589;12.568;99.958;2023-02-17T01:41:13;21.70;;;13.13;;
74229;SDS011;62589;12.568;99.958;2023-02-17T01:43:40;22.60;;;13.23;;
74229;SDS011;62589;12.568;99.958;2023-02-17T01:46:07;20.40;;;13.48;;
74229;SDS011;62589;12.568;99.958;2023-02-17T01:48:39;15.88;;;12.00;;
74229;SDS011;62589;12.568;99.958;2023-02-17T01:51:20;21.42;;;12.50;;
74229;SDS011;62589;12.568;99.958;2023-02-17T01:53:55;20.15;;;13.05;;
74229;SDS011;62589;12.568;99.958;2023-02-17T01:56:26;16.58;;;12.25;;
74229;SDS011;62589;12.568;99.958;2023-02-17T01:59:03;18.88;;;13.00;;
74229;SDS011;62589;12.568;99.958;2023-02-17T02:01:33;25.05;;;13.18;;
74229;SDS011;62589;12.568;99.958;2023-02-17T02:04:01;22.10;;;13.60;;
74229;SDS011;62589;12.568;99.958;2023-02-17T02:06:29;17.45;;;12.52;;
74229;SDS011;62589;12.568;99.958;2023-02-17T02:09:02;22.92;;;13.52;;
74229;SDS011;62589;12.568;99.958;2023-02-17T02:11:31;16.50;;;13.02;;
74229;SDS011;62589;12.568;99.958;2023-02-17T02:13:58;30.23;;;13.95;;
74229;SDS011;62589;12.568;99.958;2023-02-17T02:22:06;20.92;;;13.48;;
74229;SDS011;62589;12.568;99.958;2023-02-17T02:27:57;22.58;;;15.40;;
74229;SDS011;62589;12.568;99.958;2023-02-17T02:33:40;24.83;;;14.57;;
74229;SDS011;62589;12.568;99.958;2023-02-17T02:39:17;25.17;;;13.95;;
74229;SDS011;62589;12.568;99.958;2023-02-17T02:41:52;19.65;;;12.85;;
74229;SDS011;62589;12.568;99.958;2023-02-17T02:44:23;24.05;;;14.38;;
74229;SDS011;62589;12.568;99.958;2023-02-17T02:47:03;24.55;;;15.45;;
74229;SDS011;62589;12.568;99.958;2023-02-17T02:49:49;24.33;;;15.07;;
74229;SDS011;62589;12.568;99.958;2023-02-17T02:52:18;21.63;;;15.65;;
74229;SDS011;62589;12.568;99.958;2023-02-17T02:58:07;24.10;;;14.32;;
74229;SDS011;62589;12.568;99.958;2023-02-17T03:01:03;21.98;;;14.05;;
74229;SDS011;62589;12.568;99.958;2023-02-17T03:06:46;24.27;;;14.68;;
74229;SDS011;62589;12.568;99.958;2023-02-17T03:09:20;18.80;;;14.25;;
74229;SDS011;62589;12.568;99.958;2023-02-17T03:11:49;21.63;;;14.73;;
74229;SDS011;62589;12.568;99.958;2023-02-17T03:14:18;21.13;;;13.57;;
74229;SDS011;62589;12.568;99.958;2023-02-17T03:16:46;23.05;;;14.20;;
74229;SDS011;62589;12.568;99.958;2023-02-17T03:19:14;22.27;;;13.82;;
74229;SDS011;62589;12.568;99.958;2023-02-17T03:21:46;19.40;;;14.05;;
74229;SDS011;62589;12.568;99.958;2023-02-17T03:24:15;22.10;;;14.25;;
74229;SDS011;62589;12.568;99.958;2023-02-17T03:26:41;23.63;;;13.77;;
74229;SDS011;62589;12.568;99.958;2023-02-17T03:29:08;20.83;;;14.13;;
74229;SDS011;62589;12.568;99.958;2023-02-17T03:31:34;22.92;;;14.32;;
74229;SDS011;62589;12.568;99.958;2023-02-17T03:34:02;26.23;;;15.63;;
74229;SDS011;62589;12.568;99.958;2023-02-17T03:36:28;23.40;;;15.00;;
74229;SDS011;62589;12.568;99.958;2023-02-17T03:38:55;22.85;;;14.88;;
74229;SDS011;62589;12.568;99.958;2023-02-17T03:41:22;28.67;;;15.40;;
74229;SDS011;62589;12.568;99.958;2023-02-17T03:43:49;23.17;;;15.55;;
74229;SDS011;62589;12.568;99.958;2023-02-17T03:46:16;23.17;;;14.43;;
74229;SDS011;62589;12.568;99.958;2023-02-17T03:48:43;26.42;;;13.48;;
74229;SDS011;62589;12.568;99.958;2023-02-17T03:51:10;20.55;;;13.15;;
74229;SDS011;62589;12.568;99.958;2023-02-17T03:53:39;21.88;;;12.00;;
74229;SDS011;62589;12.568;99.958;2023-02-17T03:56:06;19.65;;;12.18;;
74229;SDS011;62589;12.568;99.958;2023-02-17T03:58:33;15.48;;;11.13;;
74229;SDS011;62589;12.568;99.958;2023-02-17T04:00:59;17.70;;;10.98;;
74229;SDS011;62589;12.568;99.958;2023-02-17T04:03:26;17.80;;;10.75;;
74229;SDS011;62589;12.568;99.958;2023-02-17T04:05:52;20.08;;;11.07;;
74229;SDS011;62589;12.568;99.958;2023-02-17T04:08:19;18.38;;;11.25;;
74229;SDS011;62589;12.568;99.958;2023-02-17T04:10:50;16.17;;;11.52;;
74229;SDS011;62589;12.568;99.958;2023-02-17T04:13:20;15.95;;;10.75;;
74229;SDS011;62589;12.568;99.958;2023-02-17T04:15:48;22.83;;;10.48;;
74229;SDS011;62589;12.568;99.958;2023-02-17T04:18:14;15.73;;;10.48;;
74229;SDS011;62589;12.568;99.958;2023-02-17T04:20:42;15.32;;;9.55;;
74229;SDS011;62589;12.568;99.958;2023-02-17T04:23:09;15.88;;;9.85;;
74229;SDS011;62589;12.568;99.958;2023-02-17T04:25:38;14.27;;;9.38;;
74229;SDS011;62589;12.568;99.958;2023-02-17T04:28:06;14.23;;;8.60;;
74229;SDS011;62589;12.568;99.958;2023-02-17T04:30:33;15.68;;;8.90;;
74229;SDS011;62589;12.568;99.958;2023-02-17T04:33:00;14.98;;;8.95;;
74229;SDS011;62589;12.568;99.958;2023-02-17T04:35:26;15.88;;;9.38;;
74229;SDS011;62589;12.568;99.958;2023-02-17T04:37:53;16.67;;;9.30;;
74229;SDS011;62589;12.568;99.958;2023-02-17T04:40:19;14.88;;;7.93;;
74229;SDS011;62589;12.568;99.958;2023-02-17T04:42:46;15.43;;;8.98;;
74229;SDS011;62589;12.568;99.958;2023-02-17T04:45:13;12.90;;;8.68;;
74229;SDS011;62589;12.568;99.958;2023-02-17T04:47:40;13.65;;;9.13;;
74229;SDS011;62589;12.568;99.958;2023-02-17T04:50:07;15.10;;;9.23;;
74229;SDS011;62589;12.568;99.958;2023-02-17T04:52:35;15.88;;;9.35;;
74229;SDS011;62589;12.568;99.958;2023-02-17T04:55:01;14.73;;;9.32;;
74229;SDS011;62589;12.568;99.958;2023-02-17T04:57:28;11.43;;;8.73;;
74229;SDS011;62589;12.568;99.958;2023-02-17T04:59:55;13.07;;;9.55;;
74229;SDS011;62589;12.568;99.958;2023-02-17T05:02:21;16.88;;;9.00;;
74229;SDS011;62589;12.568;99.958;2023-02-17T05:04:51;13.30;;;8.65;;
74229;SDS011;62589;12.568;99.958;2023-02-17T05:07:18;17.38;;;10.27;;
74229;SDS011;62589;12.568;99.958;2023-02-17T05:09:45;13.13;;;9.18;;
74229;SDS011;62589;12.568;99.958;2023-02-17T05:12:12;12.85;;;9.35;;
74229;SDS011;62589;12.568;99.958;2023-02-17T05:14:38;16.52;;;10.23;;
74229;SDS011;62589;12.568;99.958;2023-02-17T05:17:05;15.38;;;9.48;;
74229;SDS011;62589;12.568;99.958;2023-02-17T05:19:31;13.95;;;9.68;;
74229;SDS011;62589;12.568;99.958;2023-02-17T05:21:58;16.58;;;8.90;;
74229;SDS011;62589;12.568;99.958;2023-02-17T05:24:24;15.02;;;10.27;;
74229;SDS011;62589;12.568;99.958;2023-02-17T05:26:51;13.07;;;10.20;;
74229;SDS011;62589;12.568;99.958;2023-02-17T05:29:17;20.30;;;10.00;;
74229;SDS011;62589;12.568;99.958;2023-02-17T05:31:44;14.20;;;10.48;;
74229;SDS011;62589;12.568;99.958;2023-02-17T05:34:11;16.00;;;9.75;;
74229;SDS011;62589;12.568;99.958;2023-02-17T05:36:37;16.67;;;10.30;;
74229;SDS011;62589;12.568;99.958;2023-02-17T05:39:04;17.38;;;10.88;;
74229;SDS011;62589;12.568;99.958;2023-02-17T05:41:30;18.75;;;11.35;;
74229;SDS011;62589;12.568;99.958;2023-02-17T05:43:57;16.45;;;11.32;;
74229;SDS011;62589;12.568;99.958;2023-02-17T05:46:23;20.88;;;11.57;;
74229;SDS011;62589;12.568;99.958;2023-02-17T05:48:50;16.05;;;10.98;;
74229;SDS011;62589;12.568;99.958;2023-02-17T05:51:16;20.48;;;11.02;;
74229;SDS011;62589;12.568;99.958;2023-02-17T05:53:43;18.38;;;11.38;;
74229;SDS011;62589;12.568;99.958;2023-02-17T05:56:09;18.70;;;11.90;;
74229;SDS011;62589;12.568;99.958;2023-02-17T05:58:36;19.73;;;11.50;;
74229;SDS011;62589;12.568;99.958;2023-02-17T06:01:06;18.45;;;11.18;;
74229;SDS011;62589;12.568;99.958;2023-02-17T06:03:36;16.15;;;11.35;;
74229;SDS011;62589;12.568;99.958;2023-02-17T06:06:03;15.70;;;11.63;;
74229;SDS011;62589;12.568;99.958;2023-02-17T06:08:31;17.13;;;11.93;;
74229;SDS011;62589;12.568;99.958;2023-02-17T06:10:58;15.27;;;11.27;;
74229;SDS011;62589;12.568;99.958;2023-02-17T06:13:24;19.38;;;11.70;;
74229;SDS011;62589;12.568;99.958;2023-02-17T06:15:51;16.98;;;11.48;;
74229;SDS011;62589;12.568;99.958;2023-02-17T06:18:18;16.92;;;11.68;;
74229;SDS011;62589;12.568;99.958;2023-02-17T06:20:44;20.17;;;12.73;;
74229;SDS011;62589;12.568;99.958;2023-02-17T06:23:11;16.25;;;11.98;;
74229;SDS011;62589;12.568;99.958;2023-02-17T06:25:37;17.52;;;11.77;;
74229;SDS011;62589;12.568;99.958;2023-02-17T06:28:03;17.77;;;11.77;;
74229;SDS011;62589;12.568;99.958;2023-02-17T06:30:30;19.65;;;13.05;;
74229;SDS011;62589;12.568;99.958;2023-02-17T06:32:57;26.05;;;13.60;;
74229;SDS011;62589;12.568;99.958;2023-02-17T06:35:23;17.23;;;11.88;;
74229;SDS011;62589;12.568;99.958;2023-02-17T06:37:50;18.73;;;12.35;;
74229;SDS011;62589;12.568;99.958;2023-02-17T06:40:16;16.77;;;12.05;;
74229;SDS011;62589;12.568;99.958;2023-02-17T06:42:43;16.08;;;11.93;;
74229;SDS011;62589;12.568;99.958;2023-02-17T06:45:10;16.83;;;12.38;;
74229;SDS011;62589;12.568;99.958;2023-02-17T06:47:36;20.85;;;12.63;;
74229;SDS011;62589;12.568;99.958;2023-02-17T06:50:03;20.95;;;12.75;;
74229;SDS011;62589;12.568;99.958;2023-02-17T06:52:29;19.45;;;12.75;;
74229;SDS011;62589;12.568;99.958;2023-02-17T06:54:56;20.75;;;12.60;;
74229;SDS011;62589;12.568;99.958;2023-02-17T06:57:22;18.73;;;12.38;;
74229;SDS011;62589;12.568;99.958;2023-02-17T06:59:49;19.88;;;12.55;;
74229;SDS011;62589;12.568;99.958;2023-02-17T07:02:15;17.38;;;12.65;;
74229;SDS011;62589;12.568;99.958;2023-02-17T07:04:42;17.42;;;12.10;;
74229;SDS011;62589;12.568;99.958;2023-02-17T07:07:09;20.08;;;13.45;;
74229;SDS011;62589;12.568;99.958;2023-02-17T07:09:36;20.25;;;13.02;;
74229;SDS011;62589;12.568;99.958;2023-02-17T07:12:04;18.90;;;13.27;;
74229;SDS011;62589;12.568;99.958;2023-02-17T07:14:32;19.05;;;12.70;;
74229;SDS011;62589;12.568;99.958;2023-02-17T07:16:59;17.38;;;13.20;;
74229;SDS011;62589;12.568;99.958;2023-02-17T07:19:26;19.70;;;12.65;;
74229;SDS011;62589;12.568;99.958;2023-02-17T07:21:52;20.50;;;13.38;;
74229;SDS011;62589;12.568;99.958;2023-02-17T07:24:19;19.95;;;13.57;;
74229;SDS011;62589;12.568;99.958;2023-02-17T07:26:45;16.40;;;13.00;;
74229;SDS011;62589;12.568;99.958;2023-02-17T07:29:12;18.65;;;13.30;;
74229;SDS011;62589;12.568;99.958;2023-02-17T07:31:38;21.63;;;12.90;;
74229;SDS011;62589;12.568;99.958;2023-02-17T07:34:05;18.45;;;13.25;;
74229;SDS011;62589;12.568;99.958;2023-02-17T07:36:31;24.08;;;13.05;;
74229;SDS011;62589;12.568;99.958;2023-02-17T07:38:57;20.40;;;13.43;;
74229;SDS011;62589;12.568;99.958;2023-02-17T07:41:24;20.15;;;13.60;;
74229;SDS011;62589;12.568;99.958;2023-02-17T07:43:53;19.33;;;13.13;;
74229;SDS011;62589;12.568;99.958;2023-02-17T07:46:21;19.60;;;13.63;;
74229;SDS011;62589;12.568;99.958;2023-02-17T07:48:48;23.17;;;14.57;;
74229;SDS011;62589;12.568;99.958;2023-02-17T07:51:17;20.25;;;14.18;;
74229;SDS011;62589;12.568;99.958;2023-02-17T07:53:45;20.25;;;13.80;;
74229;SDS011;62589;12.568;99.958;2023-02-17T07:56:13;23.65;;;13.93;;
74229;SDS011;62589;12.568;99.958;2023-02-17T07:58:41;20.48;;;13.30;;
74229;SDS011;62589;12.568;99.958;2023-02-17T08:01:16;20.42;;;14.00;;
74229;SDS011;62589;12.568;99.958;2023-02-17T08:03:46;20.05;;;14.15;;
74229;SDS011;62589;12.568;99.958;2023-02-17T08:06:14;23.77;;;14.80;;
74229;SDS011;62589;12.568;99.958;2023-02-17T08:08:46;23.40;;;14.50;;
74229;SDS011;62589;12.568;99.958;2023-02-17T08:11:25;18.55;;;14.07;;
74229;SDS011;62589;12.568;99.958;2023-02-17T08:14:03;25.27;;;14.32;;
74229;SDS011;62589;12.568;99.958;2023-02-17T08:16:30;19.90;;;14.35;;
74229;SDS011;62589;12.568;99.958;2023-02-17T08:18:56;22.10;;;14.82;;
74229;SDS011;62589;12.568;99.958;2023-02-17T08:21:23;21.88;;;13.98;;
74229;SDS011;62589;12.568;99.958;2023-02-17T08:23:51;23.95;;;15.48;;
74229;SDS011;62589;12.568;99.958;2023-02-17T08:26:18;19.08;;;14.60;;
74229;SDS011;62589;12.568;99.958;2023-02-17T08:28:46;22.45;;;15.25;;
74229;SDS011;62589;12.568;99.958;2023-02-17T08:31:14;20.27;;;13.80;;
74229;SDS011;62589;12.568;99.958;2023-02-17T08:33:46;22.95;;;15.02;;
74229;SDS011;62589;12.568;99.958;2023-02-17T08:36:12;20.52;;;15.75;;
74229;SDS011;62589;12.568;99.958;2023-02-17T08:38:39;23.13;;;14.60;;
74229;SDS011;62589;12.568;99.958;2023-02-17T08:41:13;21.05;;;15.40;;
74229;SDS011;62589;12.568;99.958;2023-02-17T08:43:41;24.83;;;15.32;;
74229;SDS011;62589;12.568;99.958;2023-02-17T08:46:08;22.35;;;15.10;;
74229;SDS011;62589;12.568;99.958;2023-02-17T08:48:36;21.52;;;14.18;;
74229;SDS011;62589;12.568;99.958;2023-02-17T08:51:03;19.42;;;14.07;;
74229;SDS011;62589;12.568;99.958;2023-02-17T08:53:30;20.83;;;14.65;;
74229;SDS011;62589;12.568;99.958;2023-02-17T08:55:57;20.38;;;13.95;;
74229;SDS011;62589;12.568;99.958;2023-02-17T08:58:24;19.17;;;14.95;;
74229;SDS011;62589;12.568;99.958;2023-02-17T09:00:51;23.70;;;15.18;;
74229;SDS011;62589;12.568;99.958;2023-02-17T09:03:17;20.30;;;13.75;;
74229;SDS011;62589;12.568;99.958;2023-02-17T09:05:44;25.35;;;15.35;;
74229;SDS011;62589;12.568;99.958;2023-02-17T09:08:10;20.88;;;14.63;;
74229;SDS011;62589;12.568;99.958;2023-02-17T09:10:37;20.73;;;14.10;;
74229;SDS011;62589;12.568;99.958;2023-02-17T09:13:03;19.75;;;14.80;;
74229;SDS011;62589;12.568;99.958;2023-02-17T09:15:30;25.40;;;14.32;;
74229;SDS011;62589;12.568;99.958;2023-02-17T09:17:57;21.60;;;14.50;;
74229;SDS011;62589;12.568;99.958;2023-02-17T09:20:23;23.67;;;15.55;;
74229;SDS011;62589;12.568;99.958;2023-02-17T09:22:49;18.17;;;14.95;;
74229;SDS011;62589;12.568;99.958;2023-02-17T09:25:16;23.45;;;14.98;;
74229;SDS011;62589;12.568;99.958;2023-02-17T09:27:43;21.20;;;14.18;;
74229;SDS011;62589;12.568;99.958;2023-02-17T09:30:09;21.60;;;14.60;;
74229;SDS011;62589;12.568;99.958;2023-02-17T09:32:36;20.25;;;14.57;;
74229;SDS011;62589;12.568;99.958;2023-02-17T09:35:06;21.70;;;15.10;;
74229;SDS011;62589;12.568;99.958;2023-02-17T09:37:36;20.30;;;14.52;;
74229;SDS011;62589;12.568;99.958;2023-02-17T09:40:03;21.95;;;14.93;;
74229;SDS011;62589;12.568;99.958;2023-02-17T09:42:30;18.75;;;14.15;;
74229;SDS011;62589;12.568;99.958;2023-02-17T09:45:01;20.55;;;15.40;;
74229;SDS011;62589;12.568;99.958;2023-02-17T09:56:02;22.83;;;15.18;;
74229;SDS011;62589;12.568;99.958;2023-02-17T09:58:36;19.50;;;14.85;;
74229;SDS011;62589;12.568;99.958;2023-02-17T10:01:08;21.13;;;14.38;;
74229;SDS011;62589;12.568;99.958;2023-02-17T10:03:45;20.25;;;15.00;;
74229;SDS011;62589;12.568;99.958;2023-02-17T10:09:09;22.92;;;14.82;;
74229;SDS011;62589;12.568;99.958;2023-02-17T10:11:44;25.38;;;15.65;;
74229;SDS011;62589;12.568;99.958;2023-02-17T10:14:20;26.92;;;15.38;;
74229;SDS011;62589;12.568;99.958;2023-02-17T10:20:04;23.58;;;15.13;;
74229;SDS011;62589;12.568;99.958;2023-02-17T10:22:35;21.95;;;15.23;;
74229;SDS011;62589;12.568;99.958;2023-02-17T10:25:12;21.33;;;15.25;;
74229;SDS011;62589;12.568;99.958;2023-02-17T10:27:42;21.92;;;14.80;;
74229;SDS011;62589;12.568;99.958;2023-02-17T10:30:25;25.52;;;15.98;;
74229;SDS011;62589;12.568;99.958;2023-02-17T10:33:00;22.65;;;14.55;;
74229;SDS011;62589;12.568;99.958;2023-02-17T10:35:48;17.35;;;14.25;;
74229;SDS011;62589;12.568;99.958;2023-02-17T10:41:08;18.00;;;13.75;;
74229;SDS011;62589;12.568;99.958;2023-02-17T10:43:40;20.77;;;15.23;;
74229;SDS011;62589;12.568;99.958;2023-02-17T10:46:10;21.63;;;14.85;;
74229;SDS011;62589;12.568;99.958;2023-02-17T10:48:42;19.52;;;14.82;;
74229;SDS011;62589;12.568;99.958;2023-02-17T10:53:43;20.40;;;14.45;;
74229;SDS011;62589;12.568;99.958;2023-02-17T10:56:17;24.27;;;14.85;;
74229;SDS011;62589;12.568;99.958;2023-02-17T10:58:54;21.55;;;15.73;;
74229;SDS011;62589;12.568;99.958;2023-02-17T11:01:31;21.65;;;15.00;;
74229;SDS011;62589;12.568;99.958;2023-02-17T11:04:03;21.38;;;14.55;;
74229;SDS011;62589;12.568;99.958;2023-02-17T11:09:05;23.45;;;14.80;;
74229;SDS011;62589;12.568;99.958;2023-02-17T11:11:47;19.88;;;14.93;;
74229;SDS011;62589;12.568;99.958;2023-02-17T11:14:34;21.52;;;14.80;;
74229;SDS011;62589;12.568;99.958;2023-02-17T11:17:03;22.15;;;15.27;;
74229;SDS011;62589;12.568;99.958;2023-02-17T11:19:52;19.40;;;14.68;;
74229;SDS011;62589;12.568;99.958;2023-02-17T11:22:31;19.52;;;15.13;;
74229;SDS011;62589;12.568;99.958;2023-02-17T11:25:07;26.13;;;14.90;;
74229;SDS011;62589;12.568;99.958;2023-02-17T11:27:56;23.23;;;15.07;;
74229;SDS011;62589;12.568;99.958;2023-02-17T11:30:24;21.52;;;14.57;;
74229;SDS011;62589;12.568;99.958;2023-02-17T11:32:53;19.52;;;15.07;;
74229;SDS011;62589;12.568;99.958;2023-02-17T11:35:21;22.80;;;16.17;;
74229;SDS011;62589;12.568;99.958;2023-02-17T11:37:59;19.77;;;15.20;;
74229;SDS011;62589;12.568;99.958;2023-02-17T11:40:29;22.55;;;16.55;;
74229;SDS011;62589;12.568;99.958;2023-02-17T11:43:00;19.95;;;14.32;;
74229;SDS011;62589;12.568;99.958;2023-02-17T11:45:30;20.60;;;15.43;;
74229;SDS011;62589;12.568;99.958;2023-02-17T11:51:14;25.15;;;17.42;;
74229;SDS011;62589;12.568;99.958;2023-02-17T11:56:46;23.67;;;16.67;;
74229;SDS011;62589;12.568;99.958;2023-02-17T11:59:31;25.25;;;17.20;;
74229;SDS011;62589;12.568;99.958;2023-02-17T12:05:19;22.40;;;15.60;;
74229;SDS011;62589;12.568;99.958;2023-02-17T12:08:03;26.60;;;17.08;;
74229;SDS011;62589;12.568;99.958;2023-02-17T12:11:02;22.02;;;16.25;;
74229;SDS011;62589;12.568;99.958;2023-02-17T12:13:58;25.02;;;16.73;;
74229;SDS011;62589;12.568;99.958;2023-02-17T12:19:44;26.52;;;18.85;;
74229;SDS011;62589;12.568;99.958;2023-02-17T12:25:23;30.50;;;18.95;;
74229;SDS011;62589;12.568;99.958;2023-02-17T12:30:56;28.08;;;18.30;;
74229;SDS011;62589;12.568;99.958;2023-02-17T12:36:38;28.25;;;19.52;;
74229;SDS011;62589;12.568;99.958;2023-02-17T12:39:15;27.63;;;19.15;;
74229;SDS011;62589;12.568;99.958;2023-02-17T12:44:55;27.90;;;19.95;;
74229;SDS011;62589;12.568;99.958;2023-02-17T12:47:37;26.98;;;18.95;;
74229;SDS011;62589;12.568;99.958;2023-02-17T12:53:01;24.98;;;18.73;;
74229;SDS011;62589;12.568;99.958;2023-02-17T12:58:20;25.88;;;19.45;;
74229;SDS011;62589;12.568;99.958;2023-02-17T13:00:56;28.27;;;19.98;;
74229;SDS011;62589;12.568;99.958;2023-02-17T13:03:31;31.05;;;19.55;;
74229;SDS011;62589;12.568;99.958;2023-02-17T13:11:43;27.02;;;19.05;;
74229;SDS011;62589;12.568;99.958;2023-02-17T13:17:03;27.67;;;19.08;;
74229;SDS011;62589;12.568;99.958;2023-02-17T13:19:31;27.58;;;19.58;;
74229;SDS011;62589;12.568;99.958;2023-02-17T13:21:59;29.50;;;19.88;;
74229;SDS011;62589;12.568;99.958;2023-02-17T13:24:36;32.83;;;20.23;;
74229;SDS011;62589;12.568;99.958;2023-02-17T13:30:03;31.23;;;19.42;;
74229;SDS011;62589;12.568;99.958;2023-02-17T13:32:37;30.30;;;20.25;;
74229;SDS011;62589;12.568;99.958;2023-02-17T13:37:58;26.95;;;19.00;;
74229;SDS011;62589;12.568;99.958;2023-02-17T13:40:33;34.25;;;20.67;;
74229;SDS011;62589;12.568;99.958;2023-02-17T13:45:58;29.13;;;19.88;;
74229;SDS011;62589;12.568;99.958;2023-02-17T13:48:28;30.30;;;19.67;;
74229;SDS011;62589;12.568;99.958;2023-02-17T13:51:03;30.60;;;20.20;;
74229;SDS011;62589;12.568;99.958;2023-02-17T13:53:34;29.65;;;19.42;;
74229;SDS011;62589;12.568;99.958;2023-02-17T13:56:07;36.25;;;21.60;;
74229;SDS011;62589;12.568;99.958;2023-02-17T13:58:37;33.83;;;21.00;;
74229;SDS011;62589;12.568;99.958;2023-02-17T14:01:06;32.25;;;21.13;;
74229;SDS011;62589;12.568;99.958;2023-02-17T14:03:40;30.98;;;19.52;;
74229;SDS011;62589;12.568;99.958;2023-02-17T14:06:11;30.30;;;20.30;;
74229;SDS011;62589;12.568;99.958;2023-02-17T14:08:47;27.58;;;19.58;;
74229;SDS011;62589;12.568;99.958;2023-02-17T14:11:18;35.45;;;21.50;;
74229;SDS011;62589;12.568;99.958;2023-02-17T14:13:47;28.23;;;20.48;;
74229;SDS011;62589;12.568;99.958;2023-02-17T14:19:07;30.85;;;19.52;;
74229;SDS011;62589;12.568;99.958;2023-02-17T14:21:55;30.13;;;20.02;;
74229;SDS011;62589;12.568;99.958;2023-02-17T14:24:31;30.25;;;20.88;;
74229;SDS011;62589;12.568;99.958;2023-02-17T14:27:09;34.83;;;20.63;;
74229;SDS011;62589;12.568;99.958;2023-02-17T14:29:45;31.23;;;20.58;;
74229;SDS011;62589;12.568;99.958;2023-02-17T14:34:52;37.22;;;21.40;;
74229;SDS011;62589;12.568;99.958;2023-02-17T14:37:22;36.60;;;21.25;;
74229;SDS011;62589;12.568;99.958;2023-02-17T14:39:49;35.03;;;22.20;;
74229;SDS011;62589;12.568;99.958;2023-02-17T14:42:16;37.47;;;21.63;;
74229;SDS011;62589;12.568;99.958;2023-02-17T14:44:43;36.30;;;21.92;;
74229;SDS011;62589;12.568;99.958;2023-02-17T14:47:10;37.15;;;21.42;;
74229;SDS011;62589;12.568;99.958;2023-02-17T14:49:36;34.50;;;21.85;;
74229;SDS011;62589;12.568;99.958;2023-02-17T14:54:50;31.08;;;20.02;;
74229;SDS011;62589;12.568;99.958;2023-02-17T14:57:17;29.00;;;18.80;;
74229;SDS011;62589;12.568;99.958;2023-02-17T14:59:48;29.17;;;19.25;;
74229;SDS011;62589;12.568;99.958;2023-02-17T15:02:15;32.00;;;20.73;;
74229;SDS011;62589;12.568;99.958;2023-02-17T15:04:44;31.13;;;20.42;;
74229;SDS011;62589;12.568;99.958;2023-02-17T15:07:12;31.15;;;19.60;;
74229;SDS011;62589;12.568;99.958;2023-02-17T15:09:42;33.03;;;20.10;;
74229;SDS011;62589;12.568;99.958;2023-02-17T15:12:15;30.98;;;19.55;;
74229;SDS011;62589;12.568;99.958;2023-02-17T15:14:46;29.95;;;19.15;;
74229;SDS011;62589;12.568;99.958;2023-02-17T15:17:13;32.90;;;20.33;;
74229;SDS011;62589;12.568;99.958;2023-02-17T15:19:41;27.92;;;20.25;;
74229;SDS011;62589;12.568;99.958;2023-02-17T15:22:09;27.13;;;18.05;;
74229;SDS011;62589;12.568;99.958;2023-02-17T15:24:38;31.75;;;19.10;;
74229;SDS011;62589;12.568;99.958;2023-02-17T15:27:05;27.85;;;19.15;;
74229;SDS011;62589;12.568;99.958;2023-02-17T15:29:36;29.23;;;18.92;;
74229;SDS011;62589;12.568;99.958;2023-02-17T15:32:03;29.08;;;18.90;;
74229;SDS011;62589;12.568;99.958;2023-02-17T15:34:37;28.75;;;19.88;;
74229;SDS011;62589;12.568;99.958;2023-02-17T15:37:03;28.63;;;18.77;;
74229;SDS011;62589;12.568;99.958;2023-02-17T15:39:29;35.33;;;21.63;;
74229;SDS011;62589;12.568;99.958;2023-02-17T15:41:56;32.50;;;20.33;;
74229;SDS011;62589;12.568;99.958;2023-02-17T15:47:04;33.25;;;21.60;;
74229;SDS011;62589;12.568;99.958;2023-02-17T15:49:36;31.50;;;20.55;;
74229;SDS011;62589;12.568;99.958;2023-02-17T15:52:03;28.27;;;20.10;;
74229;SDS011;62589;12.568;99.958;2023-02-17T15:54:29;34.88;;;21.05;;
74229;SDS011;62589;12.568;99.958;2023-02-17T15:56:56;35.72;;;21.13;;
74229;SDS011;62589;12.568;99.958;2023-02-17T15:59:23;36.33;;;21.20;;
74229;SDS011;62589;12.568;99.958;2023-02-17T16:01:51;30.83;;;21.02;;
74229;SDS011;62589;12.568;99.958;2023-02-17T16:04:25;29.73;;;20.10;;